Hong Xiang 2 — BYBA — position and weather

sailwx.info

Track history (hours):
 
Tides and Currents Weather Stations Pressure Air Temp Water Temp Dewpoint Dewpoint Depression Visibility Wind Speed Wind Dir Waves Ship Positions

Hong Xiang 2

Last reported at 2017-Jul-22 14:40 UTC. Time now 2017-Jul-22 16:32 UTC.
Position N 22°42' E 113°41'.

Length 96 m; draft 4.9 m.

Type: Ship (hazmat cat A). MMSI: 413413000.

Date/timePositionNaut miles runAvg speedWind from/ knotsBaromVisibWave heightAir tempDewpointWater temp
2017-Jul-22 14:40N 22°42' E 113°41'171 6.6
2017-Jul-21 12:33N 23°08' E 116°45'0 9.9
2017-Jul-21 12:30N 23°08' E 116°45'6 9.5
2017-Jul-21 11:51N 23°12' E 116°50'4 9.0
2017-Jul-21 11:25N 23°16' E 116°49'410.2
2017-Jul-21 11:00N 23°19' E 116°46'5 9.9
2017-Jul-21 10:30N 23°21' E 116°41'611.1
2017-Jul-21 10:00N 23°22' E 116°35'5 9.9
2017-Jul-21 09:29N 23°26' E 116°32'4 0.4
2017-Jul-20 23:39N 23°27' E 116°28'1 7.6
2017-Jul-20 23:30N 23°26' E 116°28'4 8.7
2017-Jul-20 23:00N 23°25' E 116°33'5 9.6
2017-Jul-20 22:30N 23°21' E 116°35'1 2.6
2017-Jul-20 21:58N 23°20' E 116°37'0 0.0
2017-Jul-20 21:30N 23°20' E 116°37'0 0.0
2017-Jul-20 21:00N 23°20' E 116°37'0 0.0
2017-Jul-20 20:30N 23°20' E 116°37'0 0.0
2017-Jul-20 20:00N 23°20' E 116°37'0 0.0
2017-Jul-20 19:21N 23°20' E 116°37'0 0.0
2017-Jul-20 19:00N 23°20' E 116°37'0 0.0
2017-Jul-20 18:30N 23°20' E 116°37'0 0.1
2017-Jul-20 18:00N 23°21' E 116°37'0 0.1
2017-Jul-20 17:30N 23°21' E 116°37'0 0.0
2017-Jul-20 17:00N 23°21' E 116°37'0 0.0
2017-Jul-20 16:24N 23°21' E 116°37'0 0.0
2017-Jul-20 16:00N 23°21' E 116°37'0 0.0
2017-Jul-20 15:27N 23°21' E 116°37'0 0.0
2017-Jul-20 15:00N 23°21' E 116°37'0 0.0
2017-Jul-20 14:00N 23°21' E 116°37'0 0.0
2017-Jul-20 13:30N 23°21' E 116°37'0 0.0
2017-Jul-20 12:52N 23°21' E 116°37'0 0.0
2017-Jul-20 12:30N 23°21' E 116°37'0 0.0
2017-Jul-20 12:00N 23°21' E 116°37'0 0.0
2017-Jul-20 11:30N 23°21' E 116°37'0 0.0
2017-Jul-20 11:00N 23°21' E 116°37'1 2.1
2017-Jul-20 10:30N 23°20' E 116°38'5 9.3
2017-Jul-20 10:00N 23°21' E 116°43'510.4
2017-Jul-20 09:30N 23°18' E 116°47'510.3
2017-Jul-20 09:00N 23°13' E 116°50'510.9
2017-Jul-20 08:30N 23°09' E 116°46'173 8.3
2017-Jul-19 11:49N 22°43' E 113°41'310.3
2017-Jul-19 11:30N 22°45' E 113°39'610.2
2017-Jul-19 10:55N 22°50' E 113°35'4 9.6
2017-Jul-19 10:29N 22°54' E 113°34'3 6.2
2017-Jul-19 10:00N 22°57' E 113°33'0 0.0
2017-Jul-19 00:52N 22°57' E 113°33'0 0.9
2017-Jul-19 00:30N 22°57' E 113°33'2 4.4
2017-Jul-19 00:00N 22°55' E 113°34'4 8.2
2017-Jul-18 23:30N 22°51' E 113°35'5 8.8
2017-Jul-18 22:53N 22°46' E 113°38'175 8.5
2017-Jul-18 02:22N 23°06' E 116°47'711.1
2017-Jul-18 01:42N 23°13' E 116°50'210.9
2017-Jul-18 01:30N 23°15' E 116°49'511.1
2017-Jul-18 01:00N 23°19' E 116°45'510.3
2017-Jul-18 00:30N 23°21' E 116°40'5 9.9
2017-Jul-18 00:00N 23°22' E 116°35'510.2
2017-Jul-17 23:30N 23°26' E 116°32'4 7.5
2017-Jul-17 23:00N 23°27' E 116°28'  
Track history (hours):
 
Tides and Currents Weather Stations Pressure Air Temp Water Temp Dewpoint Dewpoint Depression Visibility Wind Speed Wind Dir Waves Ship Positions

Hong Xiang 2

Last reported at 2017-Jul-22 14:40 UTC. Time now 2017-Jul-22 16:32 UTC.
Position N 22°42' E 113°41'.

Length 96 m; draft 4.9 m.

Type: Ship (hazmat cat A). MMSI: 413413000.

Date/timePositionNaut miles runAvg speedWind from/ knotsBaromVisibWave heightAir tempDewpointWater temp
2017-Jul-22 14:40N 22°42' E 113°41'171 6.6
2017-Jul-21 12:33N 23°08' E 116°45'0 9.9
2017-Jul-21 12:30N 23°08' E 116°45'6 9.5
2017-Jul-21 11:51N 23°12' E 116°50'4 9.0
2017-Jul-21 11:25N 23°16' E 116°49'410.2
2017-Jul-21 11:00N 23°19' E 116°46'5 9.9
2017-Jul-21 10:30N 23°21' E 116°41'611.1
2017-Jul-21 10:00N 23°22' E 116°35'5 9.9
2017-Jul-21 09:29N 23°26' E 116°32'4 0.4
2017-Jul-20 23:39N 23°27' E 116°28'1 7.6
2017-Jul-20 23:30N 23°26' E 116°28'4 8.7
2017-Jul-20 23:00N 23°25' E 116°33'5 9.6
2017-Jul-20 22:30N 23°21' E 116°35'1 2.6
2017-Jul-20 21:58N 23°20' E 116°37'0 0.0
2017-Jul-20 21:30N 23°20' E 116°37'0 0.0
2017-Jul-20 21:00N 23°20' E 116°37'0 0.0
2017-Jul-20 20:30N 23°20' E 116°37'0 0.0
2017-Jul-20 20:00N 23°20' E 116°37'0 0.0
2017-Jul-20 19:21N 23°20' E 116°37'0 0.0
2017-Jul-20 19:00N 23°20' E 116°37'0 0.0
2017-Jul-20 18:30N 23°20' E 116°37'0 0.1
2017-Jul-20 18:00N 23°21' E 116°37'0 0.1
2017-Jul-20 17:30N 23°21' E 116°37'0 0.0
2017-Jul-20 17:00N 23°21' E 116°37'0 0.0
2017-Jul-20 16:24N 23°21' E 116°37'0 0.0
2017-Jul-20 16:00N 23°21' E 116°37'0 0.0
2017-Jul-20 15:27N 23°21' E 116°37'0 0.0
2017-Jul-20 15:00N 23°21' E 116°37'0 0.0
2017-Jul-20 14:00N 23°21' E 116°37'0 0.0
2017-Jul-20 13:30N 23°21' E 116°37'0 0.0
2017-Jul-20 12:52N 23°21' E 116°37'0 0.0
2017-Jul-20 12:30N 23°21' E 116°37'0 0.0
2017-Jul-20 12:00N 23°21' E 116°37'0 0.0
2017-Jul-20 11:30N 23°21' E 116°37'0 0.0
2017-Jul-20 11:00N 23°21' E 116°37'1 2.1
2017-Jul-20 10:30N 23°20' E 116°38'5 9.3
2017-Jul-20 10:00N 23°21' E 116°43'510.4
2017-Jul-20 09:30N 23°18' E 116°47'510.3
2017-Jul-20 09:00N 23°13' E 116°50'510.9
2017-Jul-20 08:30N 23°09' E 116°46'173 8.3
2017-Jul-19 11:49N 22°43' E 113°41'310.3
2017-Jul-19 11:30N 22°45' E 113°39'610.2
2017-Jul-19 10:55N 22°50' E 113°35'4 9.6
2017-Jul-19 10:29N 22°54' E 113°34'3 6.2
2017-Jul-19 10:00N 22°57' E 113°33'0 0.0
2017-Jul-19 00:52N 22°57' E 113°33'0 0.9
2017-Jul-19 00:30N 22°57' E 113°33'2 4.4
2017-Jul-19 00:00N 22°55' E 113°34'4 8.2
2017-Jul-18 23:30N 22°51' E 113°35'5 8.8
2017-Jul-18 22:53N 22°46' E 113°38'175 8.5
2017-Jul-18 02:22N 23°06' E 116°47'711.1
2017-Jul-18 01:42N 23°13' E 116°50'210.9
2017-Jul-18 01:30N 23°15' E 116°49'511.1
2017-Jul-18 01:00N 23°19' E 116°45'510.3
2017-Jul-18 00:30N 23°21' E 116°40'5 9.9
2017-Jul-18 00:00N 23°22' E 116°35'510.2
2017-Jul-17 23:30N 23°26' E 116°32'4 7.5
2017-Jul-17 23:00N 23°27' E 116°28'  

Dump ship's entire track history